createdAt,value
2023-02-12T00:02:32.878Z,19.30
2023-02-12T00:05:21.155Z,18.80
2023-02-12T00:08:11.275Z,17.20
2023-02-12T00:10:59.630Z,18.30
2023-02-12T00:13:49.568Z,21.35
2023-02-12T00:16:37.956Z,19.95
2023-02-12T00:19:26.226Z,19.63
2023-02-12T00:22:14.485Z,18.55
2023-02-12T00:25:02.703Z,21.08
2023-02-12T00:27:50.955Z,21.40
2023-02-12T00:30:40.602Z,17.67
2023-02-12T00:33:28.819Z,19.40
2023-02-12T00:36:18.469Z,18.73
2023-02-12T00:39:06.728Z,20.60
2023-02-12T00:41:54.990Z,19.98
2023-02-12T00:44:43.271Z,18.55
2023-02-12T00:47:32.812Z,19.85
2023-02-12T00:50:21.192Z,16.98
2023-02-12T00:53:09.672Z,20.35
2023-02-12T00:55:58.277Z,18.90
2023-02-12T00:58:46.635Z,17.52
2023-02-12T01:01:35.192Z,20.30
2023-02-12T01:04:24.910Z,16.60
2023-02-12T01:07:13.273Z,19.75
2023-02-12T01:10:01.593Z,19.63
2023-02-12T01:12:50.331Z,16.23
2023-02-12T01:15:38.591Z,17.73
2023-02-12T01:18:26.911Z,16.52
2023-02-12T01:21:19.114Z,17.45
2023-02-12T01:24:07.736Z,20.10
2023-02-12T01:26:56.060Z,17.63
2023-02-12T01:29:44.702Z,17.85
2023-02-12T01:32:32.938Z,18.33
2023-02-12T01:35:21.156Z,17.88
2023-02-12T01:38:10.783Z,14.88
2023-02-12T01:41:04.472Z,15.10
2023-02-12T01:44:10.656Z,15.77
2023-02-12T01:47:00.929Z,14.05
2023-02-12T01:49:49.856Z,13.82
2023-02-12T01:52:40.826Z,14.75
2023-02-12T01:55:30.613Z,17.05
2023-02-12T01:58:19.764Z,12.38
2023-02-12T02:01:13.557Z,14.43
2023-02-12T02:04:05.535Z,14.77
2023-02-12T02:06:58.279Z,16.55
2023-02-12T02:09:47.266Z,15.73
2023-02-12T02:12:55.146Z,14.45
2023-02-12T02:15:48.158Z,15.10
2023-02-12T02:18:44.919Z,14.48
2023-02-12T02:22:01.198Z,15.98
2023-02-12T02:25:07.041Z,14.77
2023-02-12T02:28:13.554Z,15.43
2023-02-12T02:31:08.903Z,14.57
2023-02-12T02:34:00.512Z,14.95
2023-02-12T02:37:00.756Z,17.58
2023-02-12T02:39:54.774Z,17.00
2023-02-12T02:42:48.448Z,17.42
2023-02-12T02:45:42.552Z,16.05
2023-02-12T02:48:36.670Z,17.67
2023-02-12T02:51:30.190Z,15.43
2023-02-12T02:54:22.508Z,14.52
2023-02-12T02:57:16.132Z,16.67
2023-02-12T03:00:12.919Z,15.48
2023-02-12T03:03:07.908Z,17.52
2023-02-12T03:06:03.369Z,16.35
2023-02-12T03:08:54.733Z,17.55
2023-02-12T03:11:43.239Z,16.52
2023-02-12T03:14:35.847Z,14.93
2023-02-12T03:17:30.202Z,13.88
2023-02-12T03:20:21.515Z,15.93
2023-02-12T03:23:14.371Z,14.27
2023-02-12T03:26:07.066Z,14.38
2023-02-12T03:28:55.314Z,13.70
2023-02-12T03:32:04.617Z,13.05
2023-02-12T03:34:56.664Z,16.35
2023-02-12T03:37:52.451Z,15.90
2023-02-12T03:40:48.250Z,15.75
2023-02-12T03:43:50.307Z,14.18
2023-02-12T03:46:43.984Z,16.10
2023-02-12T03:49:38.209Z,14.00
2023-02-12T03:52:26.533Z,13.45
2023-02-12T03:55:15.298Z,13.30
2023-02-12T03:58:07.743Z,15.48
2023-02-12T04:00:56.487Z,13.23
2023-02-12T04:03:45.620Z,15.07
2023-02-12T04:06:34.492Z,14.70
2023-02-12T04:09:24.694Z,16.95
2023-02-12T04:12:41.383Z,23.10
2023-02-12T04:15:46.717Z,17.88
2023-02-12T04:18:43.044Z,17.58
2023-02-12T04:21:44.901Z,18.80
2023-02-12T04:24:40.402Z,16.23
2023-02-12T04:27:36.607Z,15.43
2023-02-12T04:30:29.902Z,21.35
2023-02-12T04:33:24.017Z,19.75
2023-02-12T04:36:17.314Z,23.10
2023-02-12T04:39:11.142Z,22.38
2023-02-12T04:42:00.553Z,22.83
2023-02-12T04:44:48.765Z,21.77
2023-02-12T04:47:37.057Z,23.92
2023-02-12T04:50:27.493Z,24.45
2023-02-12T04:53:17.307Z,23.25
2023-02-12T04:56:06.257Z,22.17
2023-02-12T04:58:57.771Z,24.73
2023-02-12T05:01:47.045Z,24.65
2023-02-12T05:04:35.360Z,23.60
2023-02-12T05:07:24.972Z,28.02
2023-02-12T05:10:13.272Z,20.80
2023-02-12T05:13:01.516Z,23.23
2023-02-12T05:15:49.816Z,22.88
2023-02-12T05:18:38.112Z,24.95
2023-02-12T05:21:26.313Z,21.63
2023-02-12T05:24:15.901Z,23.45
2023-02-12T05:27:04.639Z,24.77
2023-02-12T05:29:53.257Z,26.90
2023-02-12T05:32:41.515Z,26.48
2023-02-12T05:35:29.723Z,27.83
2023-02-12T05:38:17.961Z,32.92
2023-02-12T05:41:09.441Z,27.08
2023-02-12T05:43:58.001Z,26.40
2023-02-12T05:46:46.407Z,27.95
2023-02-12T05:49:34.707Z,28.90
2023-02-12T05:52:22.905Z,28.98
2023-02-12T05:55:11.176Z,27.65
2023-02-12T05:58:00.725Z,31.30
2023-02-12T06:00:48.989Z,32.15
2023-02-12T06:03:37.240Z,31.33
2023-02-12T06:06:26.377Z,34.53
2023-02-12T06:09:15.619Z,30.45
2023-02-12T06:12:03.956Z,33.78
2023-02-12T06:14:53.656Z,34.05
2023-02-12T06:17:41.853Z,32.28
2023-02-12T06:20:30.109Z,41.30
2023-02-12T06:23:18.340Z,34.17
2023-02-12T06:26:06.636Z,33.60
2023-02-12T06:28:55.188Z,33.60
2023-02-12T06:31:44.941Z,32.00
2023-02-12T06:34:33.738Z,33.95
2023-02-12T06:37:21.989Z,32.13
2023-02-12T06:40:10.672Z,34.92
2023-02-12T06:42:59.002Z,31.52
2023-02-12T06:45:47.228Z,33.53
2023-02-12T06:48:37.384Z,34.13
2023-02-12T06:51:27.329Z,33.90
2023-02-12T06:54:18.582Z,32.17
2023-02-12T06:57:06.871Z,31.38
2023-02-12T06:59:55.127Z,28.35
2023-02-12T07:02:43.391Z,28.58
2023-02-12T07:05:33.234Z,29.63
2023-02-12T07:08:21.465Z,27.42
2023-02-12T07:11:10.064Z,24.52
2023-02-12T07:13:58.487Z,21.60
2023-02-12T07:16:46.939Z,20.92
2023-02-12T07:19:35.233Z,20.15
2023-02-12T07:22:24.869Z,22.25
2023-02-12T07:25:13.104Z,20.63
2023-02-12T07:28:01.619Z,21.73
2023-02-12T07:30:49.862Z,19.83
2023-02-12T07:33:39.068Z,20.48
2023-02-12T07:36:32.837Z,24.63
2023-02-12T07:39:22.827Z,25.38
2023-02-12T07:42:14.138Z,23.35
2023-02-12T07:45:02.397Z,21.30
2023-02-12T07:47:50.943Z,22.60
2023-02-12T07:50:39.162Z,22.38
2023-02-12T07:53:27.379Z,22.13
2023-02-12T07:56:19.096Z,17.95
2023-02-12T07:59:09.799Z,17.77
2023-02-12T08:02:00.977Z,20.35
2023-02-12T08:04:49.402Z,14.50
2023-02-12T08:07:37.834Z,17.98
2023-02-12T08:10:26.039Z,16.25
2023-02-12T08:13:15.657Z,14.35
2023-02-12T08:16:06.500Z,16.85
2023-02-12T08:18:55.025Z,15.18
2023-02-12T08:21:43.309Z,17.42
2023-02-12T08:24:31.837Z,14.55
2023-02-12T08:27:20.082Z,16.98
2023-02-12T08:30:11.709Z,14.70
2023-02-12T08:33:01.085Z,11.50
2023-02-12T08:35:49.446Z,13.20
2023-02-12T08:38:38.996Z,10.35
2023-02-12T08:41:29.155Z,13.00
2023-02-12T08:44:18.005Z,9.43
2023-02-12T08:47:07.811Z,10.35
2023-02-12T08:49:56.033Z,10.65
2023-02-12T08:52:44.252Z,9.75
2023-02-12T08:55:32.856Z,9.80
2023-02-12T08:58:21.129Z,10.57
2023-02-12T09:01:11.974Z,12.00
2023-02-12T09:04:01.812Z,9.40
2023-02-12T09:06:51.541Z,10.68
2023-02-12T09:09:39.842Z,9.63
2023-02-12T09:12:28.272Z,10.60
2023-02-12T09:15:16.725Z,9.57
2023-02-12T09:18:05.297Z,11.40
2023-02-12T09:20:54.885Z,7.90
2023-02-12T09:23:43.493Z,9.98
2023-02-12T09:26:32.156Z,7.95
2023-02-12T09:29:20.424Z,9.75
2023-02-12T09:32:09.389Z,9.98
2023-02-12T09:34:57.695Z,9.32
2023-02-12T09:37:47.290Z,10.52
2023-02-12T09:40:41.549Z,9.57
2023-02-12T09:43:36.480Z,9.88
2023-02-12T09:46:31.057Z,9.68
2023-02-12T09:49:32.412Z,8.73
2023-02-12T09:52:26.634Z,10.18
2023-02-12T09:55:19.238Z,9.30
2023-02-12T09:58:15.302Z,7.15
2023-02-12T10:01:11.429Z,8.45
2023-02-12T10:04:00.026Z,9.13
2023-02-12T10:06:56.850Z,8.73
2023-02-12T10:09:59.317Z,9.00
2023-02-12T10:12:54.161Z,9.73
2023-02-12T10:15:54.085Z,11.32
2023-02-12T10:19:01.026Z,9.83
2023-02-12T10:22:00.623Z,10.20
2023-02-12T10:24:58.910Z,11.90
2023-02-12T10:27:53.458Z,10.98
2023-02-12T10:30:45.365Z,11.10
2023-02-12T10:33:39.240Z,12.27
2023-02-12T10:36:38.271Z,12.43
2023-02-12T10:39:30.440Z,13.43
2023-02-12T10:42:22.957Z,13.95
2023-02-12T10:45:17.396Z,15.65
2023-02-12T10:48:09.769Z,12.70
2023-02-12T10:51:13.946Z,13.45
2023-02-12T10:54:41.258Z,12.38
2023-02-12T10:57:31.822Z,12.75
2023-02-12T11:00:29.937Z,14.93
2023-02-12T11:03:22.973Z,11.52
2023-02-12T11:06:16.122Z,13.45
2023-02-12T11:09:05.808Z,13.27
2023-02-12T11:11:54.348Z,11.75
2023-02-12T11:14:50.185Z,10.55
2023-02-12T11:17:42.016Z,15.32
2023-02-12T11:20:34.105Z,13.38
2023-02-12T11:23:28.343Z,12.57
2023-02-12T11:26:28.717Z,13.40
2023-02-12T11:29:23.707Z,16.00
2023-02-12T11:32:17.694Z,11.60
2023-02-12T11:35:14.973Z,12.10
2023-02-12T11:38:04.378Z,12.30
2023-02-12T11:40:58.307Z,12.23
2023-02-12T11:43:46.945Z,13.43
2023-02-12T11:46:35.818Z,10.68
2023-02-12T11:49:28.423Z,12.73
2023-02-12T11:52:22.462Z,14.18
2023-02-12T11:55:23.766Z,19.58
2023-02-12T11:58:17.036Z,10.25
2023-02-12T12:01:19.421Z,11.65
2023-02-12T12:04:12.406Z,10.23
2023-02-12T12:07:06.736Z,10.55
2023-02-12T12:10:00.745Z,16.05
2023-02-12T12:12:54.011Z,14.70
2023-02-12T12:16:04.864Z,10.68
2023-02-12T12:19:28.988Z,12.02
2023-02-12T12:22:27.994Z,9.43
2023-02-12T12:25:25.109Z,10.30
2023-02-12T12:28:29.831Z,9.20
2023-02-12T12:31:21.524Z,10.07
2023-02-12T12:34:12.539Z,10.75
2023-02-12T12:37:24.550Z,12.02
2023-02-12T12:40:43.476Z,11.27
2023-02-12T12:43:45.143Z,10.63
2023-02-12T12:46:44.305Z,13.32
2023-02-12T12:49:58.332Z,10.55
2023-02-12T12:53:00.047Z,11.63
2023-02-12T12:56:16.249Z,11.57
2023-02-12T12:59:28.898Z,10.85
2023-02-12T13:02:57.080Z,12.43
2023-02-12T13:06:03.679Z,10.57
2023-02-12T13:09:18.962Z,12.38
2023-02-12T13:12:44.339Z,12.43
2023-02-12T13:15:40.217Z,10.80
2023-02-12T13:18:42.444Z,10.40
2023-02-12T13:21:41.919Z,10.50
2023-02-12T13:24:37.105Z,10.73
2023-02-12T13:27:29.347Z,10.93
2023-02-12T13:30:23.280Z,10.95
2023-02-12T13:33:16.065Z,14.10
2023-02-12T13:36:07.144Z,12.38
2023-02-12T13:41:53.534Z,11.05
2023-02-12T13:44:48.410Z,9.60
2023-02-12T13:47:48.215Z,11.27
2023-02-12T13:50:43.355Z,12.52
2023-02-12T13:53:38.847Z,11.52
2023-02-12T13:56:38.948Z,11.20
2023-02-12T13:59:50.463Z,12.60
2023-02-12T14:02:50.376Z,16.02
2023-02-12T14:05:38.796Z,17.50
2023-02-12T14:08:40.976Z,15.43
2023-02-12T14:11:29.698Z,13.73
2023-02-12T14:14:27.930Z,17.60
2023-02-12T14:17:41.806Z,15.27
2023-02-12T14:20:33.203Z,15.60
2023-02-12T14:23:25.124Z,12.40
2023-02-12T14:26:15.301Z,12.90
2023-02-12T14:29:06.002Z,14.53
2023-02-12T14:31:54.305Z,14.75
2023-02-12T14:34:42.733Z,14.07
2023-02-12T14:37:38.977Z,15.80
2023-02-12T14:40:44.402Z,19.50
2023-02-12T14:43:55.341Z,15.40
2023-02-12T14:46:49.988Z,15.20
2023-02-12T14:49:42.288Z,16.30
2023-02-12T14:52:33.633Z,16.67
2023-02-12T14:55:30.623Z,16.17
2023-02-12T14:58:21.074Z,14.50
2023-02-12T15:01:09.498Z,16.58
2023-02-12T15:04:00.218Z,15.38
2023-02-12T15:06:54.262Z,15.27
2023-02-12T15:09:49.150Z,17.63
2023-02-12T15:12:42.269Z,15.65
2023-02-12T15:15:34.332Z,19.80
2023-02-12T15:18:30.652Z,15.55
2023-02-12T15:21:23.245Z,16.33
2023-02-12T15:24:14.022Z,18.60
2023-02-12T15:27:02.330Z,16.05
2023-02-12T15:29:54.640Z,16.63
2023-02-12T15:32:46.052Z,19.13
2023-02-12T15:35:36.878Z,15.30
2023-02-12T15:38:33.453Z,18.35
2023-02-12T15:41:28.960Z,16.17
2023-02-12T15:44:31.120Z,17.30
2023-02-12T15:47:26.668Z,19.95
2023-02-12T15:50:16.442Z,29.63
2023-02-12T15:53:04.741Z,32.38
2023-02-12T15:55:53.733Z,39.05
2023-02-12T15:58:48.085Z,36.42
2023-02-12T16:01:38.129Z,42.65
2023-02-12T16:04:31.936Z,40.63
2023-02-12T16:07:21.124Z,43.15
2023-02-12T16:10:12.170Z,44.47
2023-02-12T16:16:06.009Z,46.05
2023-02-12T16:19:20.724Z,43.63
2023-02-12T16:22:16.628Z,48.42
2023-02-12T16:25:12.731Z,48.72
2023-02-12T16:28:02.551Z,46.65
2023-02-12T16:30:53.507Z,52.05
2023-02-12T16:33:48.639Z,46.63
2023-02-12T16:36:37.054Z,45.97
2023-02-12T16:40:07.147Z,53.78
2023-02-12T16:43:23.768Z,43.45
2023-02-12T16:46:13.417Z,46.47
2023-02-12T16:49:03.280Z,44.08
2023-02-12T16:51:52.600Z,47.42
2023-02-12T16:54:40.934Z,43.95
2023-02-12T16:57:29.173Z,45.65
2023-02-12T17:00:19.638Z,48.05
2023-02-12T17:03:07.873Z,36.20
2023-02-12T17:05:56.812Z,46.33
2023-02-12T17:08:45.530Z,47.17
2023-02-12T17:11:33.731Z,43.08
2023-02-12T17:14:22.467Z,46.53
2023-02-12T17:17:14.950Z,47.60
2023-02-12T17:20:03.220Z,45.60
2023-02-12T17:22:54.381Z,45.42
2023-02-12T17:28:31.943Z,45.33
2023-02-12T17:31:21.316Z,42.75
2023-02-12T17:34:11.060Z,48.95
2023-02-12T17:36:59.265Z,46.47
2023-02-12T17:39:47.606Z,48.47
2023-02-12T17:42:35.884Z,50.97
2023-02-12T17:45:24.117Z,47.83
2023-02-12T17:48:12.840Z,50.50
2023-02-12T17:51:02.425Z,49.72
2023-02-12T17:53:50.654Z,50.28
2023-02-12T17:56:38.871Z,49.67
2023-02-12T17:59:27.242Z,48.42
2023-02-12T18:02:15.476Z,49.17
2023-02-12T18:05:03.711Z,49.13
2023-02-12T18:07:53.268Z,47.63
2023-02-12T18:10:42.211Z,52.08
2023-02-12T18:13:30.441Z,49.47
2023-02-12T18:16:18.704Z,51.03
2023-02-12T18:19:07.297Z,51.05
2023-02-12T18:21:56.455Z,53.05
2023-02-12T18:24:46.067Z,52.60
2023-02-12T18:27:34.465Z,52.65
2023-02-12T18:30:22.889Z,52.72
2023-02-12T18:33:12.890Z,54.30
2023-02-12T18:36:03.204Z,47.30
2023-02-12T18:38:52.693Z,46.83
2023-02-12T18:41:42.326Z,43.40
2023-02-12T18:44:30.603Z,40.50
2023-02-12T18:47:19.697Z,38.65
2023-02-12T18:50:09.513Z,32.42
2023-02-12T18:52:57.738Z,37.35
2023-02-12T18:55:46.517Z,30.85
2023-02-12T18:58:36.757Z,33.00
2023-02-12T19:01:25.970Z,30.50
2023-02-12T19:04:16.113Z,30.48
2023-02-12T19:07:04.695Z,31.60
2023-02-12T19:09:52.919Z,27.42
2023-02-12T19:12:41.243Z,31.17
2023-02-12T19:15:30.927Z,25.38
2023-02-12T19:18:19.566Z,24.98
2023-02-12T19:21:09.503Z,20.75
2023-02-12T19:23:59.800Z,21.65
2023-02-12T19:26:52.225Z,18.25
2023-02-12T19:29:40.443Z,20.65
2023-02-12T19:32:30.049Z,22.67
2023-02-12T19:35:18.462Z,17.67
2023-02-12T19:38:06.682Z,20.17
2023-02-12T19:41:03.386Z,16.45
2023-02-12T19:43:55.181Z,20.90
2023-02-12T19:46:43.755Z,17.75
2023-02-12T19:49:33.373Z,16.30
2023-02-12T19:52:21.656Z,15.93
2023-02-12T19:55:10.083Z,16.85
2023-02-12T19:57:58.295Z,21.30
2023-02-12T20:00:46.602Z,15.32
2023-02-12T20:03:34.818Z,15.07
2023-02-12T20:06:27.336Z,14.50
2023-02-12T20:09:15.597Z,14.45
2023-02-12T20:12:03.936Z,17.70
2023-02-12T20:14:52.151Z,16.30
2023-02-12T20:17:40.396Z,17.25
2023-02-12T20:20:28.706Z,17.30
2023-02-12T20:23:18.278Z,18.52
2023-02-12T20:26:07.198Z,17.08
2023-02-12T20:28:55.557Z,16.85
2023-02-12T20:31:45.091Z,19.92
2023-02-12T20:34:45.744Z,16.25
2023-02-12T20:37:38.790Z,18.83
2023-02-12T20:40:28.416Z,18.60
2023-02-12T20:43:16.725Z,16.42
2023-02-12T20:46:06.704Z,17.70
2023-02-12T20:48:55.554Z,18.27
2023-02-12T20:51:44.506Z,18.52
2023-02-12T20:54:32.712Z,21.15
2023-02-12T20:57:22.511Z,23.77
2023-02-12T21:00:11.849Z,21.50
2023-02-12T21:03:03.879Z,25.30
2023-02-12T21:05:52.106Z,30.05
2023-02-12T21:08:42.423Z,24.98
2023-02-12T21:11:31.334Z,30.73
2023-02-12T21:14:23.159Z,27.75
2023-02-12T21:17:12.263Z,29.00
2023-02-12T21:20:00.878Z,29.45
2023-02-12T21:22:49.113Z,31.55
2023-02-12T21:25:37.350Z,33.28
2023-02-12T21:28:25.947Z,27.65
2023-02-12T21:31:18.175Z,30.50
2023-02-12T21:34:07.736Z,30.42
2023-02-12T21:36:57.589Z,32.72
2023-02-12T21:39:45.798Z,32.03
2023-02-12T21:42:34.034Z,30.35
2023-02-12T21:45:22.237Z,19.58
2023-02-12T21:48:11.800Z,22.80
2023-02-12T21:51:00.239Z,24.95
2023-02-12T21:53:49.100Z,24.27
2023-02-12T21:56:38.238Z,26.25
2023-02-12T21:59:26.916Z,24.67
2023-02-12T22:02:15.262Z,21.25
2023-02-12T22:05:04.839Z,24.02
2023-02-12T22:07:53.270Z,20.38
2023-02-12T22:10:41.539Z,23.58
2023-02-12T22:13:30.709Z,25.00
2023-02-12T22:16:21.638Z,21.23
2023-02-12T22:19:10.166Z,23.40
2023-02-12T22:21:59.713Z,28.77
2023-02-12T22:24:47.933Z,25.23
2023-02-12T22:27:36.185Z,25.67
2023-02-12T22:30:24.398Z,27.98
2023-02-12T22:33:12.629Z,24.42
2023-02-12T22:36:05.216Z,23.27
2023-02-12T22:38:56.269Z,27.73
2023-02-12T22:41:44.498Z,29.63
2023-02-12T22:44:33.098Z,28.23
2023-02-12T22:47:24.666Z,26.40
2023-02-12T22:50:13.188Z,28.38
2023-02-12T22:53:01.395Z,31.10
2023-02-12T22:55:51.102Z,29.48
2023-02-12T22:58:41.090Z,29.77
2023-02-12T23:01:30.769Z,27.27
2023-02-12T23:04:20.046Z,23.45
2023-02-12T23:07:08.330Z,24.17
2023-02-12T23:09:56.569Z,25.45
2023-02-12T23:12:46.113Z,23.38
2023-02-12T23:15:34.328Z,21.83
2023-02-12T23:18:23.000Z,20.30
2023-02-12T23:21:11.362Z,24.00
2023-02-12T23:24:00.216Z,21.50
2023-02-12T23:26:48.461Z,21.70
2023-02-12T23:29:38.051Z,19.25
2023-02-12T23:32:26.401Z,21.70
2023-02-12T23:35:14.617Z,18.85
2023-02-12T23:38:04.368Z,22.38
2023-02-12T23:40:52.712Z,21.75
2023-02-12T23:43:40.972Z,18.98
2023-02-12T23:46:30.812Z,19.90
2023-02-12T23:49:19.126Z,21.35
2023-02-12T23:52:07.431Z,21.30
2023-02-12T23:54:56.801Z,20.08
2023-02-12T23:57:45.005Z,23.77
